createdAt,value
2019-02-28T00:00:46.548Z,5.22
2019-02-28T00:01:47.219Z,5.21
2019-02-28T00:02:46.599Z,5.27
2019-02-28T00:03:46.625Z,5.24
2019-02-28T00:04:46.652Z,5.24
2019-02-28T00:05:46.679Z,5.25
2019-02-28T00:06:46.705Z,5.28
2019-02-28T00:07:49.601Z,5.42
2019-02-28T00:08:46.759Z,5.33
2019-02-28T00:09:46.784Z,5.38
2019-02-28T00:10:46.810Z,5.39
2019-02-28T00:11:46.839Z,5.46
2019-02-28T00:12:48.157Z,5.42
2019-02-28T00:13:46.890Z,5.45
2019-02-28T00:14:46.916Z,5.57
2019-02-28T00:15:46.948Z,5.57
2019-02-28T00:16:46.971Z,5.53
2019-02-28T00:17:46.998Z,5.54
2019-02-28T00:18:49.669Z,5.46
2019-02-28T00:19:47.051Z,5.54
2019-02-28T00:20:47.075Z,5.49
2019-02-28T00:21:47.102Z,5.57
2019-02-28T00:22:49.292Z,5.51
2019-02-28T00:23:47.153Z,5.56
2019-02-28T00:24:47.180Z,5.48
2019-02-28T00:25:47.211Z,5.48
2019-02-28T00:26:47.935Z,5.53
2019-02-28T00:27:47.259Z,5.57
2019-02-28T00:28:47.286Z,5.45
2019-02-28T00:29:47.312Z,5.42
2019-02-28T00:30:47.340Z,5.28
2019-02-28T00:31:50.050Z,5.48
2019-02-28T00:32:47.390Z,5.36
2019-02-28T00:33:47.417Z,5.42
2019-02-28T00:34:47.443Z,5.38
2019-02-28T00:35:50.925Z,5.43
2019-02-28T00:36:50.364Z,5.35
2019-02-28T00:37:47.522Z,5.43
2019-02-28T00:38:47.548Z,5.33
2019-02-28T00:39:47.575Z,5.35
2019-02-28T00:40:47.602Z,5.40
2019-02-28T00:41:47.629Z,5.21
2019-02-28T00:42:48.047Z,5.30
2019-02-28T00:43:47.681Z,5.22
2019-02-28T00:44:47.707Z,5.25
2019-02-28T00:45:47.733Z,5.33
2019-02-28T00:46:47.757Z,5.31
2019-02-28T00:47:48.394Z,5.31
2019-02-28T00:48:47.810Z,5.20
2019-02-28T00:49:47.837Z,5.21
2019-02-28T00:50:47.863Z,5.22
2019-02-28T00:51:47.889Z,5.10
2019-02-28T00:52:47.930Z,5.12
2019-02-28T00:53:47.946Z,5.04
2019-02-28T00:54:47.971Z,5.10
2019-02-28T00:55:47.994Z,4.92
2019-02-28T00:56:51.582Z,4.69
2019-02-28T00:57:48.047Z,4.72
2019-02-28T00:58:48.073Z,4.67
2019-02-28T00:59:48.099Z,4.66
2019-02-28T01:00:48.125Z,4.84
2019-02-28T01:01:48.151Z,4.88
2019-02-28T01:02:51.868Z,4.89
2019-02-28T01:03:48.203Z,4.94
2019-02-28T01:04:48.228Z,5.00
2019-02-28T01:05:48.256Z,4.96
2019-02-28T01:06:48.282Z,5.00
2019-02-28T01:07:49.057Z,5.00
2019-02-28T01:08:48.337Z,4.91
2019-02-28T01:09:48.360Z,4.82
2019-02-28T01:10:48.388Z,4.84
2019-02-28T01:11:48.413Z,4.96
2019-02-28T01:12:53.240Z,4.96
2019-02-28T01:13:48.465Z,4.89
2019-02-28T01:14:48.491Z,4.84
2019-02-28T01:15:48.517Z,4.84
2019-02-28T01:16:50.223Z,4.88
2019-02-28T01:17:48.570Z,4.88
2019-02-28T01:18:48.596Z,4.97
2019-02-28T01:19:48.625Z,5.00
2019-02-28T01:20:50.719Z,5.02
2019-02-28T01:21:48.677Z,4.88
2019-02-28T01:22:48.698Z,4.67
2019-02-28T01:23:48.726Z,4.55
2019-02-28T01:24:48.751Z,4.58
2019-02-28T01:25:48.780Z,4.80
2019-02-28T01:26:48.802Z,4.82
2019-02-28T01:27:48.830Z,4.88
2019-02-28T01:28:48.856Z,4.89
2019-02-28T01:29:48.882Z,4.99
2019-02-28T01:30:48.907Z,5.02
2019-02-28T01:31:48.934Z,4.97
2019-02-28T01:32:50.946Z,4.96
2019-02-28T01:33:48.986Z,5.00
2019-02-28T01:34:49.012Z,4.96
2019-02-28T01:35:49.038Z,4.80
2019-02-28T01:36:49.596Z,4.91
2019-02-28T01:37:49.093Z,4.99
2019-02-28T01:38:49.114Z,4.82
2019-02-28T01:39:49.143Z,4.88
2019-02-28T01:40:49.168Z,4.88
2019-02-28T01:41:49.193Z,4.86
2019-02-28T01:42:53.927Z,4.84
2019-02-28T01:43:49.295Z,4.92
2019-02-28T01:44:49.270Z,4.86
2019-02-28T01:45:49.297Z,4.77
2019-02-28T01:46:49.425Z,4.54
2019-02-28T01:47:51.698Z,4.20
2019-02-28T01:48:49.373Z,4.04
2019-02-28T01:49:49.401Z,3.86
2019-02-28T01:50:49.425Z,3.83
2019-02-28T01:51:49.451Z,3.65
2019-02-28T01:52:49.477Z,3.52
2019-02-28T01:53:50.402Z,3.51
2019-02-28T01:54:49.528Z,3.50
2019-02-28T01:55:49.554Z,3.52
2019-02-28T01:56:49.580Z,3.70
2019-02-28T01:57:49.606Z,3.79
2019-02-28T01:58:50.382Z,3.93
2019-02-28T01:59:52.909Z,4.22
2019-02-28T02:00:49.685Z,4.22
2019-02-28T02:01:49.709Z,4.26
2019-02-28T02:02:49.735Z,4.16
2019-02-28T02:03:49.761Z,4.20
2019-02-28T02:04:49.787Z,4.14
2019-02-28T02:05:51.703Z,4.26
2019-02-28T02:06:49.838Z,4.24
2019-02-28T02:07:49.864Z,4.40
2019-02-28T02:08:49.890Z,4.37
2019-02-28T02:09:49.914Z,4.30
2019-02-28T02:10:54.986Z,4.32
2019-02-28T02:11:49.965Z,4.26
2019-02-28T02:12:49.992Z,4.32
2019-02-28T02:13:50.017Z,4.40
2019-02-28T02:14:50.042Z,4.40
2019-02-28T02:15:51.381Z,4.23
2019-02-28T02:16:50.093Z,4.00
2019-02-28T02:17:50.123Z,3.86
2019-02-28T02:18:50.146Z,3.84
2019-02-28T02:19:52.173Z,3.75
2019-02-28T02:20:50.196Z,3.66
2019-02-28T02:21:50.222Z,3.87
2019-02-28T02:22:50.247Z,3.86
2019-02-28T02:23:53.105Z,3.88
2019-02-28T02:24:50.299Z,4.04
2019-02-28T02:25:50.327Z,4.00
2019-02-28T02:26:50.349Z,4.12
2019-02-28T02:27:53.356Z,4.18
2019-02-28T02:28:50.400Z,4.29
2019-02-28T02:29:50.426Z,4.34
2019-02-28T02:30:52.032Z,4.42
2019-02-28T02:31:50.478Z,4.36
2019-02-28T02:32:50.503Z,4.37
2019-02-28T02:33:52.363Z,4.42
2019-02-28T02:34:50.572Z,4.41
2019-02-28T02:35:50.579Z,4.34
2019-02-28T02:36:54.176Z,4.30
2019-02-28T02:37:50.632Z,4.24
2019-02-28T02:38:50.658Z,4.08
2019-02-28T02:39:51.344Z,4.04
2019-02-28T02:40:50.707Z,3.94
2019-02-28T02:41:50.732Z,4.02
2019-02-28T02:42:50.757Z,4.04
2019-02-28T02:43:54.991Z,4.00
2019-02-28T02:44:50.810Z,4.11
2019-02-28T02:45:50.835Z,4.00
2019-02-28T02:46:55.596Z,3.94
2019-02-28T02:47:50.886Z,4.09
2019-02-28T02:48:50.913Z,4.00
2019-02-28T02:49:56.155Z,4.05
2019-02-28T02:50:50.961Z,4.05
2019-02-28T02:51:50.987Z,3.98
2019-02-28T02:52:51.012Z,4.12
2019-02-28T02:53:51.041Z,4.00
2019-02-28T02:54:52.129Z,4.18
2019-02-28T02:55:51.090Z,4.02
2019-02-28T02:56:51.118Z,4.16
2019-02-28T02:57:51.959Z,4.09
2019-02-28T02:58:51.166Z,4.20
2019-02-28T02:59:51.196Z,4.33
2019-02-28T03:00:51.664Z,4.34
2019-02-28T03:01:51.242Z,4.26
2019-02-28T03:02:51.265Z,4.30
2019-02-28T03:03:51.292Z,4.30
2019-02-28T03:04:57.910Z,4.30
2019-02-28T03:05:51.348Z,4.29
2019-02-28T03:06:51.367Z,4.09
2019-02-28T03:07:51.394Z,4.05
2019-02-28T03:08:51.425Z,4.09
2019-02-28T03:09:51.445Z,3.87
2019-02-28T03:10:53.034Z,3.84
2019-02-28T03:11:51.497Z,3.86
2019-02-28T03:12:51.534Z,3.91
2019-02-28T03:13:51.553Z,3.86
2019-02-28T03:14:51.572Z,3.78
2019-02-28T03:15:51.599Z,3.83
2019-02-28T03:16:51.628Z,3.79
2019-02-28T03:17:51.861Z,3.83
2019-02-28T03:18:56.913Z,3.83
2019-02-28T03:19:51.699Z,4.00
2019-02-28T03:21:56.927Z,3.94
2019-02-28T03:22:56.941Z,3.93
2019-02-28T03:23:56.967Z,3.86
2019-02-28T03:24:56.992Z,3.68
2019-02-28T03:26:05.178Z,3.45
2019-02-28T03:26:57.042Z,3.31
2019-02-28T03:27:57.069Z,3.06
2019-02-28T03:28:57.096Z,2.85
2019-02-28T03:29:57.120Z,3.05
2019-02-28T03:30:57.145Z,3.05
2019-02-28T03:31:59.599Z,3.08
2019-02-28T03:32:57.195Z,3.03
2019-02-28T03:34:10.598Z,3.42
2019-02-28T03:34:59.236Z,3.51
2019-02-28T03:35:57.272Z,3.62
2019-02-28T03:36:57.775Z,3.54
2019-02-28T03:37:57.321Z,3.57
2019-02-28T03:38:57.347Z,3.52
2019-02-28T03:40:02.438Z,3.45
2019-02-28T03:40:57.396Z,3.13
2019-02-28T03:41:57.423Z,2.99
2019-02-28T03:43:05.224Z,2.84
2019-02-28T03:43:57.472Z,2.84
2019-02-28T03:44:58.273Z,2.81
2019-02-28T03:45:57.524Z,2.77
2019-02-28T03:46:57.561Z,2.75
2019-02-28T03:47:58.774Z,2.78
2019-02-28T03:48:57.599Z,2.71
2019-02-28T03:49:57.623Z,2.77
2019-02-28T03:50:57.648Z,2.81
2019-02-28T03:52:05.411Z,2.99
2019-02-28T03:52:57.725Z,2.97
2019-02-28T03:53:57.723Z,3.00
2019-02-28T03:55:03.183Z,2.97
2019-02-28T03:55:57.773Z,3.06
2019-02-28T03:56:57.799Z,3.11
2019-02-28T03:58:03.891Z,3.17
2019-02-28T03:58:57.851Z,3.26
2019-02-28T03:59:57.872Z,3.20
2019-02-28T04:00:57.898Z,2.97
2019-02-28T04:01:57.923Z,3.20
2019-02-28T04:02:59.061Z,3.28
2019-02-28T04:03:57.985Z,3.55
2019-02-28T04:04:58.003Z,3.51
2019-02-28T04:06:03.014Z,3.54
2019-02-28T04:06:58.048Z,3.66
2019-02-28T04:07:58.074Z,3.70
2019-02-28T04:08:58.104Z,3.73
2019-02-28T04:09:58.125Z,3.52
2019-02-28T04:10:58.149Z,3.32
2019-02-28T04:11:58.179Z,3.50
2019-02-28T04:12:58.200Z,3.61
2019-02-28T04:13:58.225Z,3.51
2019-02-28T04:14:58.249Z,3.50
2019-02-28T04:16:08.422Z,3.52
2019-02-28T04:16:58.335Z,3.43
2019-02-28T04:17:58.324Z,3.36
2019-02-28T04:18:58.349Z,3.45
2019-02-28T04:20:00.014Z,3.33
2019-02-28T04:20:58.401Z,3.33
2019-02-28T04:21:58.427Z,3.32
2019-02-28T04:23:00.145Z,3.35
2019-02-28T04:23:58.485Z,3.26
2019-02-28T04:24:58.513Z,3.28
2019-02-28T04:25:58.525Z,3.17
2019-02-28T04:27:05.965Z,3.13
2019-02-28T04:27:58.576Z,3.18
2019-02-28T04:28:58.604Z,3.18
2019-02-28T04:30:05.790Z,3.18
2019-02-28T04:30:58.651Z,3.17
2019-02-28T04:31:58.677Z,3.21
2019-02-28T04:33:01.579Z,3.08
2019-02-28T04:33:58.731Z,3.00
2019-02-28T04:34:58.752Z,2.97
2019-02-28T04:36:00.614Z,3.18
2019-02-28T04:36:58.803Z,3.05
2019-02-28T04:37:58.832Z,3.00
2019-02-28T04:38:58.852Z,3.05
2019-02-28T04:39:58.878Z,2.89
2019-02-28T04:40:59.948Z,2.96
2019-02-28T04:41:58.929Z,3.00
2019-02-28T04:42:58.952Z,2.96
2019-02-28T04:43:58.978Z,2.99
2019-02-28T04:44:59.002Z,2.95
2019-02-28T04:45:59.028Z,2.87
2019-02-28T04:46:59.052Z,2.77
2019-02-28T04:47:59.077Z,2.74
2019-02-28T04:48:59.129Z,2.60
2019-02-28T04:49:59.128Z,2.61
2019-02-28T04:50:59.153Z,2.67
2019-02-28T04:51:59.177Z,2.64
2019-02-28T04:52:59.206Z,2.57
2019-02-28T04:53:59.229Z,2.71
2019-02-28T04:55:02.563Z,2.67
2019-02-28T04:55:59.278Z,2.45
2019-02-28T04:56:59.304Z,2.69
2019-02-28T04:57:59.329Z,2.63
2019-02-28T04:59:00.280Z,2.64
2019-02-28T04:59:59.382Z,2.75
2019-02-28T05:00:59.408Z,2.72
2019-02-28T05:01:59.429Z,2.75
2019-02-28T05:02:59.452Z,2.59
2019-02-28T05:04:02.350Z,2.75
2019-02-28T05:04:59.504Z,2.69
2019-02-28T05:05:59.529Z,2.79
2019-02-28T05:06:59.553Z,2.95
2019-02-28T05:08:04.658Z,2.71
2019-02-28T05:08:59.604Z,2.60
2019-02-28T05:09:59.627Z,2.59
2019-02-28T05:10:59.651Z,2.59
2019-02-28T05:12:02.508Z,2.54
2019-02-28T05:12:59.702Z,2.52
2019-02-28T05:13:59.738Z,2.39
2019-02-28T05:15:02.240Z,2.27
2019-02-28T05:15:59.777Z,2.20
2019-02-28T05:16:59.803Z,2.16
2019-02-28T05:17:59.832Z,2.30
2019-02-28T05:19:01.669Z,2.24
2019-02-28T05:19:59.877Z,2.63
2019-02-28T05:20:59.902Z,2.72
2019-02-28T05:21:59.927Z,2.77
2019-02-28T05:23:02.597Z,2.82
2019-02-28T05:23:59.975Z,2.77
2019-02-28T05:25:00.004Z,2.78
2019-02-28T05:26:00.026Z,2.84
2019-02-28T05:27:01.170Z,2.72
2019-02-28T05:28:00.074Z,2.53
2019-02-28T05:29:00.099Z,2.39
2019-02-28T05:30:00.236Z,2.45
2019-02-28T05:31:00.149Z,2.43
2019-02-28T05:32:00.954Z,2.46
2019-02-28T05:33:00.199Z,2.24
2019-02-28T05:34:00.229Z,2.23
2019-02-28T05:35:00.249Z,2.18
2019-02-28T05:36:04.053Z,2.17
2019-02-28T05:37:00.298Z,2.00
2019-02-28T05:38:00.326Z,1.84
2019-02-28T05:39:00.352Z,1.88
2019-02-28T05:40:05.606Z,2.05
2019-02-28T05:41:00.436Z,2.21
2019-02-28T05:42:00.425Z,2.25
2019-02-28T05:43:00.447Z,2.25
2019-02-28T05:44:03.330Z,2.23
2019-02-28T05:45:00.498Z,2.20
2019-02-28T05:46:00.522Z,2.25
2019-02-28T05:47:00.546Z,2.35
2019-02-28T05:48:03.948Z,2.21
2019-02-28T05:49:00.597Z,2.12
2019-02-28T05:50:00.622Z,2.12
2019-02-28T05:51:00.646Z,2.07
2019-02-28T05:52:00.676Z,2.10
2019-02-28T05:53:00.703Z,2.10
2019-02-28T05:54:00.722Z,2.17
2019-02-28T05:55:00.746Z,2.21
2019-02-28T05:56:00.773Z,2.34
2019-02-28T05:57:00.795Z,2.35
2019-02-28T05:58:00.819Z,2.43
2019-02-28T05:59:00.844Z,2.67
2019-02-28T06:00:01.800Z,2.78
2019-02-28T06:01:00.894Z,2.74
2019-02-28T06:02:00.919Z,2.46
2019-02-28T06:03:02.573Z,2.45
2019-02-28T06:04:03.206Z,2.28
2019-02-28T06:05:00.993Z,2.31
2019-02-28T06:06:01.018Z,2.23
2019-02-28T06:07:01.043Z,2.39
2019-02-28T06:08:03.627Z,2.45
2019-02-28T06:09:01.092Z,2.25
2019-02-28T06:10:01.117Z,2.20
2019-02-28T06:11:01.536Z,2.09
2019-02-28T06:12:01.168Z,1.99
2019-02-28T06:13:01.191Z,2.02
2019-02-28T06:14:01.216Z,2.16
2019-02-28T06:15:03.197Z,2.17
2019-02-28T06:16:01.269Z,2.45
2019-02-28T06:17:01.290Z,2.67
2019-02-28T06:18:01.315Z,2.64
2019-02-28T06:19:01.340Z,2.78
2019-02-28T06:20:01.372Z,2.79
2019-02-28T06:21:01.389Z,2.69
2019-02-28T06:22:01.415Z,2.75
2019-02-28T06:23:01.440Z,2.64
2019-02-28T06:24:01.463Z,2.41
2019-02-28T06:25:01.487Z,2.31
2019-02-28T06:26:01.528Z,2.38
2019-02-28T06:27:03.724Z,2.45
2019-02-28T06:28:01.563Z,2.61
2019-02-28T06:29:04.627Z,2.63
2019-02-28T06:30:01.613Z,2.60
2019-02-28T06:31:01.637Z,2.53
2019-02-28T06:32:01.663Z,2.45
2019-02-28T06:33:01.689Z,2.38
2019-02-28T06:34:01.711Z,2.42
2019-02-28T06:35:01.737Z,2.34
2019-02-28T06:36:01.763Z,2.27
2019-02-28T06:37:03.736Z,2.42
2019-02-28T06:38:01.812Z,2.43
2019-02-28T06:39:01.835Z,2.42
2019-02-28T06:40:01.861Z,2.53
2019-02-28T06:41:04.233Z,2.57
2019-02-28T06:42:01.912Z,2.95
2019-02-28T06:43:01.938Z,2.99
2019-02-28T06:44:01.961Z,3.15
2019-02-28T06:45:02.532Z,3.31
2019-02-28T06:46:03.701Z,3.55
2019-02-28T06:47:02.036Z,3.76
2019-02-28T06:48:02.060Z,3.79
2019-02-28T06:49:06.900Z,3.66
2019-02-28T06:50:02.111Z,3.76
2019-02-28T06:51:02.141Z,3.83
2019-02-28T06:52:02.160Z,3.97
2019-02-28T06:53:02.187Z,4.00
2019-02-28T06:54:04.376Z,3.98
2019-02-28T06:55:02.238Z,3.91
2019-02-28T06:56:02.261Z,4.09
2019-02-28T06:57:02.286Z,4.22
2019-02-28T06:58:02.313Z,4.29
2019-02-28T06:59:04.898Z,4.40
2019-02-28T07:00:02.361Z,4.52
2019-02-28T07:01:02.410Z,4.58
2019-02-28T07:02:02.432Z,4.62
2019-02-28T07:03:03.322Z,4.69
2019-02-28T07:04:02.463Z,4.59
2019-02-28T07:05:02.490Z,4.72
2019-02-28T07:06:02.514Z,4.86
2019-02-28T07:07:02.615Z,4.94
2019-02-28T07:08:02.566Z,5.00
2019-02-28T07:09:03.123Z,5.00
2019-02-28T07:10:02.616Z,5.03
2019-02-28T07:11:02.643Z,4.99
2019-02-28T07:12:02.667Z,4.99
2019-02-28T07:13:04.477Z,4.96
2019-02-28T07:14:02.729Z,4.94
2019-02-28T07:15:02.754Z,4.80
2019-02-28T07:16:04.356Z,4.69
2019-02-28T07:17:02.795Z,4.69
2019-02-28T07:18:02.821Z,4.70
2019-02-28T07:19:02.847Z,4.62
2019-02-28T07:20:03.155Z,4.78
2019-02-28T07:21:02.904Z,4.85
2019-02-28T07:22:02.932Z,4.73
2019-02-28T07:23:02.951Z,4.77
2019-02-28T07:24:03.756Z,4.96
2019-02-28T07:25:03.003Z,4.77
2019-02-28T07:26:03.030Z,4.78
2019-02-28T07:27:04.248Z,4.88
2019-02-28T07:28:03.082Z,5.10
2019-02-28T07:29:03.110Z,5.17
2019-02-28T07:30:03.135Z,5.43
2019-02-28T07:31:03.161Z,5.64
2019-02-28T07:32:03.186Z,5.82
2019-02-28T07:33:09.499Z,5.91
2019-02-28T07:34:03.239Z,6.01
2019-02-28T07:35:03.265Z,6.21
2019-02-28T07:36:05.698Z,6.30
2019-02-28T07:37:03.322Z,6.27
2019-02-28T07:38:03.353Z,6.40
2019-02-28T07:39:04.464Z,6.43
2019-02-28T07:40:03.431Z,6.71
2019-02-28T07:41:03.431Z,6.92
2019-02-28T07:42:03.452Z,6.91
2019-02-28T07:43:03.478Z,7.02
2019-02-28T07:44:03.506Z,7.03
2019-02-28T07:45:03.535Z,7.15
2019-02-28T07:46:04.505Z,7.28
2019-02-28T07:47:03.591Z,7.27
2019-02-28T07:48:03.615Z,7.35
2019-02-28T07:49:03.641Z,7.35
2019-02-28T07:50:03.671Z,7.49
2019-02-28T07:51:03.695Z,7.46
2019-02-28T07:52:03.724Z,7.48
2019-02-28T07:53:05.567Z,7.71
2019-02-28T07:54:03.787Z,7.63
2019-02-28T07:55:03.809Z,7.83
2019-02-28T07:56:07.163Z,7.97
2019-02-28T07:57:03.869Z,8.08
2019-02-28T07:58:03.896Z,8.19
2019-02-28T07:59:05.331Z,8.18
2019-02-28T08:00:03.966Z,8.20
2019-02-28T08:01:03.976Z,8.37
2019-02-28T08:02:04.105Z,8.53
2019-02-28T08:03:04.030Z,8.62
2019-02-28T08:04:04.059Z,8.70
2019-02-28T08:05:04.089Z,8.86
2019-02-28T08:06:04.775Z,9.08
2019-02-28T08:07:04.145Z,9.18
2019-02-28T08:08:04.175Z,9.26
2019-02-28T08:09:04.839Z,9.40
2019-02-28T08:10:04.233Z,9.56
2019-02-28T08:11:04.261Z,9.83
2019-02-28T08:12:04.290Z,9.79
2019-02-28T08:13:04.319Z,10.09
2019-02-28T08:14:04.351Z,10.45
2019-02-28T08:15:04.381Z,10.85
2019-02-28T08:16:04.409Z,11.65
2019-02-28T08:17:05.488Z,12.96
2019-02-28T08:18:05.849Z,14.32
2019-02-28T08:19:04.499Z,15.56
2019-02-28T08:20:04.526Z,16.91
2019-02-28T08:21:05.414Z,17.82
2019-02-28T08:22:04.590Z,18.44
2019-02-28T08:23:04.617Z,18.94
2019-02-28T08:24:05.388Z,19.33
2019-02-28T08:25:07.826Z,19.80
2019-02-28T08:26:04.709Z,20.35
2019-02-28T08:27:04.744Z,20.79
2019-02-28T08:28:04.771Z,20.82
2019-02-28T08:29:07.803Z,21.10
2019-02-28T08:30:04.836Z,21.40
2019-02-28T08:31:04.868Z,21.46
2019-02-28T08:34:04.985Z,22.10
2019-02-28T08:35:05.013Z,22.36
2019-02-28T08:36:08.523Z,22.60
2019-02-28T08:37:05.069Z,22.86
2019-02-28T08:38:06.724Z,22.97
2019-02-28T08:40:05.173Z,23.10
2019-02-28T08:41:06.470Z,23.15
2019-02-28T08:42:05.243Z,23.38
2019-02-28T08:43:05.258Z,23.32
2019-02-28T08:44:05.295Z,23.20
2019-02-28T08:45:05.334Z,22.98
2019-02-28T08:46:09.564Z,22.54
2019-02-28T08:47:05.394Z,22.92
2019-02-28T08:48:05.429Z,23.48
2019-02-28T08:49:07.260Z,23.79
2019-02-28T08:50:05.508Z,23.94
2019-02-28T08:51:05.534Z,23.13
2019-02-28T08:52:06.670Z,23.70
2019-02-28T08:53:05.605Z,24.03
2019-02-28T08:54:06.166Z,24.57
2019-02-28T08:55:07.734Z,24.95
2019-02-28T08:56:05.709Z,24.90
2019-02-28T08:57:05.751Z,24.30
2019-02-28T08:58:06.710Z,24.69
2019-02-28T08:59:11.827Z,25.15
2019-02-28T09:00:05.856Z,25.35
2019-02-28T09:01:06.614Z,25.06
2019-02-28T09:02:06.131Z,24.84
2019-02-28T09:03:06.005Z,24.60
2019-02-28T09:04:06.002Z,24.52
2019-02-28T09:05:06.716Z,25.10
2019-02-28T09:06:07.402Z,25.70
2019-02-28T09:08:06.152Z,26.33
2019-02-28T09:09:06.190Z,26.60
2019-02-28T09:10:06.746Z,26.35
2019-02-28T09:11:06.265Z,26.40
2019-02-28T09:12:06.307Z,26.54
2019-02-28T09:13:08.749Z,26.97
2019-02-28T09:14:06.383Z,27.60
2019-02-28T09:15:06.418Z,27.85
2019-02-28T09:16:06.456Z,27.69
2019-02-28T09:17:06.496Z,27.70
2019-02-28T09:18:07.343Z,27.67
2019-02-28T09:19:06.596Z,27.51
2019-02-28T09:20:07.459Z,27.54
2019-02-28T09:21:06.653Z,27.49
2019-02-28T09:22:06.692Z,27.44
2019-02-28T09:23:06.731Z,27.93
2019-02-28T09:24:09.430Z,28.06
2019-02-28T09:25:06.811Z,28.17
2019-02-28T09:26:07.053Z,28.51
2019-02-28T09:27:06.889Z,28.61
2019-02-28T09:28:06.929Z,28.86
2019-02-28T09:29:07.299Z,28.95
2019-02-28T09:30:07.241Z,29.26
2019-02-28T09:31:07.051Z,28.96
2019-02-28T09:32:07.115Z,28.76
2019-02-28T09:33:07.356Z,29.23
2019-02-28T09:35:12.240Z,29.27
2019-02-28T09:36:07.277Z,29.73
2019-02-28T09:37:07.299Z,29.26
2019-02-28T09:38:13.223Z,29.16
2019-02-28T09:39:07.475Z,28.95
2019-02-28T09:40:07.421Z,29.02
2019-02-28T09:41:10.084Z,27.55
2019-02-28T09:42:07.504Z,27.79
2019-02-28T09:43:07.544Z,28.22
2019-02-28T09:44:07.589Z,28.80
2019-02-28T09:45:07.842Z,27.97
2019-02-28T09:46:09.061Z,28.86
2019-02-28T09:47:11.076Z,29.42
2019-02-28T09:48:07.754Z,29.68
2019-02-28T09:49:11.994Z,30.45
2019-02-28T09:50:07.841Z,30.82
2019-02-28T09:51:07.880Z,31.19
2019-02-28T09:52:07.923Z,31.36
2019-02-28T09:53:07.965Z,31.81
2019-02-28T09:54:08.013Z,31.65
2019-02-28T09:55:08.051Z,30.19
2019-02-28T09:56:09.284Z,30.86
2019-02-28T09:57:08.137Z,31.10
2019-02-28T09:58:09.192Z,31.47
2019-02-28T09:59:08.228Z,31.80
2019-02-28T10:00:11.639Z,32.40
2019-02-28T10:01:08.315Z,32.60
2019-02-28T10:02:09.564Z,32.69
2019-02-28T10:03:08.399Z,32.62
2019-02-28T10:04:10.335Z,31.89
2019-02-28T10:05:08.489Z,32.10
2019-02-28T10:06:08.555Z,31.61
2019-02-28T10:08:08.621Z,30.07
2019-02-28T10:09:09.452Z,30.01
2019-02-28T10:10:08.735Z,30.39
2019-02-28T10:11:08.779Z,29.87
2019-02-28T10:13:09.048Z,29.68
2019-02-28T10:14:08.890Z,29.80
2019-02-28T10:15:08.961Z,29.51
2019-02-28T10:16:08.982Z,30.37
2019-02-28T10:17:09.026Z,30.43
2019-02-28T10:19:10.191Z,29.61
2019-02-28T10:20:09.177Z,29.24
2019-02-28T10:21:09.430Z,28.98
2019-02-28T10:22:10.151Z,29.51
2019-02-28T10:24:09.569Z,29.14
2019-02-28T10:25:09.410Z,29.04
2019-02-28T10:27:09.479Z,29.61
2019-02-28T10:28:09.563Z,29.70
2019-02-28T10:29:09.873Z,29.04
2019-02-28T10:30:09.840Z,30.31
2019-02-28T10:32:09.775Z,31.10
2019-02-28T10:33:09.768Z,31.29
2019-02-28T10:34:09.799Z,32.08
2019-02-28T10:35:09.836Z,32.93
2019-02-28T10:36:13.022Z,33.56
2019-02-28T10:38:09.972Z,32.96
2019-02-28T10:39:10.019Z,31.20
2019-02-28T10:40:10.063Z,31.89
2019-02-28T10:41:10.128Z,29.60
2019-02-28T10:42:10.154Z,29.76
2019-02-28T10:43:12.097Z,30.91
2019-02-28T10:44:10.448Z,30.51
2019-02-28T10:45:10.292Z,29.43
2019-02-28T10:46:10.339Z,28.88
2019-02-28T10:47:10.385Z,28.88
2019-02-28T10:48:10.432Z,29.24
2019-02-28T10:49:10.477Z,29.37
2019-02-28T10:50:10.523Z,30.46
2019-02-28T10:51:13.887Z,31.17
2019-02-28T10:52:10.614Z,31.02
2019-02-28T10:53:10.661Z,30.42
2019-02-28T10:54:11.263Z,30.42
2019-02-28T10:55:10.775Z,31.17
2019-02-28T10:56:10.825Z,30.55
2019-02-28T10:57:10.920Z,30.99
2019-02-28T10:58:12.551Z,31.47
2019-02-28T11:00:10.986Z,33.15
2019-02-28T11:01:11.034Z,33.63
2019-02-28T11:02:13.515Z,33.11
2019-02-28T11:03:11.132Z,33.94
2019-02-28T11:04:11.181Z,33.47
2019-02-28T11:05:11.224Z,34.25
2019-02-28T11:06:11.287Z,34.99
2019-02-28T11:07:11.318Z,34.40
2019-02-28T11:08:12.858Z,32.66
2019-02-28T11:09:11.616Z,31.93
2019-02-28T11:10:11.461Z,30.00
2019-02-28T11:11:11.509Z,28.80
2019-02-28T11:12:11.558Z,27.19
2019-02-28T11:13:11.605Z,26.36
2019-02-28T11:15:13.922Z,29.34
2019-02-28T11:16:11.744Z,29.41
2019-02-28T11:17:13.835Z,29.27
2019-02-28T11:18:11.840Z,30.42
2019-02-28T11:19:13.820Z,31.96
2019-02-28T11:20:21.784Z,32.38
2019-02-28T11:21:11.979Z,32.87
2019-02-28T11:22:12.024Z,32.56
2019-02-28T11:23:15.015Z,33.38
2019-02-28T11:24:12.120Z,33.81
2019-02-28T11:25:12.192Z,33.79
2019-02-28T11:26:12.237Z,34.30
2019-02-28T11:27:12.540Z,34.49
2019-02-28T11:28:12.306Z,34.62
2019-02-28T11:29:12.359Z,34.87
2019-02-28T11:30:12.401Z,32.63
2019-02-28T11:31:12.476Z,33.00
2019-02-28T11:32:12.515Z,32.70
2019-02-28T11:33:12.559Z,33.69
2019-02-28T11:34:15.023Z,33.42
2019-02-28T11:35:12.661Z,34.49
2019-02-28T11:36:12.709Z,34.49
2019-02-28T11:37:12.851Z,34.62
2019-02-28T11:38:12.799Z,34.73
2019-02-28T11:39:12.852Z,34.77
2019-02-28T11:40:12.882Z,34.78
2019-02-28T11:41:15.512Z,34.44
2019-02-28T11:42:12.980Z,33.35
2019-02-28T11:43:13.029Z,34.03
2019-02-28T11:44:13.077Z,35.14
2019-02-28T11:45:13.147Z,35.53
2019-02-28T11:46:13.202Z,34.34
2019-02-28T11:47:13.277Z,34.37
2019-02-28T11:48:18.917Z,34.75
2019-02-28T11:49:13.707Z,34.77
2019-02-28T11:50:13.378Z,34.65
2019-02-28T11:51:14.565Z,35.28
2019-02-28T11:52:13.467Z,35.43
2019-02-28T11:53:13.544Z,34.43
2019-02-28T11:55:16.738Z,34.03
2019-02-28T11:56:14.299Z,34.87
2019-02-28T11:57:16.740Z,35.29
2019-02-28T11:58:17.598Z,35.71
2019-02-28T11:59:13.813Z,35.90
2019-02-28T12:00:13.862Z,36.35
2019-02-28T12:01:13.911Z,34.75
2019-02-28T12:02:13.961Z,33.01
2019-02-28T12:03:14.009Z,32.26
2019-02-28T12:04:14.060Z,33.19
2019-02-28T12:05:15.687Z,33.35
2019-02-28T12:06:14.160Z,33.94
2019-02-28T12:07:14.535Z,33.97
2019-02-28T12:08:14.458Z,34.54
2019-02-28T12:09:16.309Z,34.40
2019-02-28T12:10:14.355Z,34.00
2019-02-28T12:11:14.403Z,34.24
2019-02-28T12:12:14.456Z,33.44
2019-02-28T12:13:16.501Z,32.66
2019-02-28T12:14:14.559Z,30.72
2019-02-28T12:15:14.604Z,31.47
2019-02-28T12:16:16.218Z,31.43
2019-02-28T12:17:15.190Z,32.06
2019-02-28T12:18:14.748Z,29.87
2019-02-28T12:19:15.885Z,30.69
2019-02-28T12:20:14.845Z,31.01
2019-02-28T12:21:14.907Z,30.51
2019-02-28T12:22:14.943Z,31.28
2019-02-28T12:23:14.991Z,32.55
2019-02-28T12:24:15.039Z,33.41
2019-02-28T12:25:15.087Z,33.63
2019-02-28T12:26:17.735Z,33.34
2019-02-28T12:27:15.187Z,33.60
2019-02-28T12:28:15.233Z,32.75
2019-02-28T12:29:15.279Z,33.38
2019-02-28T12:30:15.330Z,31.78
2019-02-28T12:31:15.376Z,31.91
2019-02-28T12:32:15.423Z,33.04
2019-02-28T12:33:18.633Z,34.35
2019-02-28T12:34:15.538Z,35.00
2019-02-28T12:35:15.569Z,35.25
2019-02-28T12:36:15.631Z,36.19
2019-02-28T12:37:15.666Z,36.19
2019-02-28T12:38:15.716Z,36.00
2019-02-28T12:39:15.763Z,35.00
2019-02-28T12:40:15.816Z,34.15
2019-02-28T12:41:15.860Z,34.22
2019-02-28T12:42:15.910Z,34.15
2019-02-28T12:43:15.956Z,34.35
2019-02-28T12:44:16.188Z,33.82
2019-02-28T12:45:16.257Z,34.22
2019-02-28T12:46:16.131Z,34.50
2019-02-28T12:47:16.246Z,34.56
2019-02-28T12:48:16.207Z,35.00
2019-02-28T12:49:21.765Z,34.69
2019-02-28T12:50:16.301Z,34.39
2019-02-28T12:51:16.345Z,34.73
2019-02-28T12:52:16.394Z,34.43
2019-02-28T12:54:16.518Z,35.00
2019-02-28T12:55:16.772Z,35.19
2019-02-28T12:56:16.610Z,34.97
2019-02-28T12:57:19.351Z,33.66
2019-02-28T12:58:16.712Z,34.09
2019-02-28T12:59:16.959Z,34.65
2019-02-28T13:00:19.923Z,34.66
2019-02-28T13:01:17.059Z,35.00
2019-02-28T13:02:17.140Z,34.52
2019-02-28T13:03:20.305Z,35.21
2019-02-28T13:04:17.306Z,35.55
2019-02-28T13:05:17.053Z,35.59
2019-02-28T13:06:17.100Z,33.79
2019-02-28T13:07:17.151Z,33.28
2019-02-28T13:09:17.804Z,33.86
2019-02-28T13:10:17.293Z,33.86
2019-02-28T13:11:17.339Z,34.75
2019-02-28T13:12:17.365Z,34.39
2019-02-28T13:13:21.609Z,32.87
2019-02-28T13:14:18.196Z,32.59
2019-02-28T13:15:17.541Z,33.23
2019-02-28T13:16:20.742Z,34.61
2019-02-28T13:17:17.615Z,35.28
2019-02-28T13:18:17.683Z,34.97
2019-02-28T13:19:20.006Z,35.16
2019-02-28T13:20:17.764Z,35.33
2019-02-28T13:21:17.800Z,35.16
2019-02-28T13:22:18.861Z,35.11
2019-02-28T13:23:17.904Z,35.40
2019-02-28T13:24:17.948Z,34.19
2019-02-28T13:25:19.528Z,34.80
2019-02-28T13:26:18.042Z,34.66
2019-02-28T13:27:18.088Z,33.45